sensor_id;sensor_type;location;lat;lon;timestamp;pressure;altitude;pressure_sealevel;temperature;humidity
28000;BME280;15328;50.860;10.562;2023-02-28T00:00:31;97583.31;;;0.07;61.51
28000;BME280;15328;50.860;10.562;2023-02-28T00:05:32;97579.84;;;0.07;61.68
28000;BME280;15328;50.860;10.562;2023-02-28T00:10:33;97577.94;;;0.09;61.87
28000;BME280;15328;50.860;10.562;2023-02-28T00:15:33;97574.63;;;0.07;61.62
28000;BME280;15328;50.860;10.562;2023-02-28T00:20:34;97569.13;;;0.10;61.45
28000;BME280;15328;50.860;10.562;2023-02-28T00:25:34;97577.38;;;0.05;62.02
28000;BME280;15328;50.860;10.562;2023-02-28T00:30:34;97571.56;;;0.02;62.38
28000;BME280;15328;50.860;10.562;2023-02-28T00:35:35;97566.19;;;0.03;62.43
28000;BME280;15328;50.860;10.562;2023-02-28T00:40:35;97572.97;;;-0.06;63.01
28000;BME280;15328;50.860;10.562;2023-02-28T00:45:35;97570.13;;;-0.03;62.38
28000;BME280;15328;50.860;10.562;2023-02-28T00:50:36;97573.81;;;-0.05;63.55
28000;BME280;15328;50.860;10.562;2023-02-28T00:55:36;97571.06;;;-0.04;62.87
28000;BME280;15328;50.860;10.562;2023-02-28T01:00:36;97575.84;;;-0.09;63.32
28000;BME280;15328;50.860;10.562;2023-02-28T01:05:36;97564.44;;;-0.08;63.33
28000;BME280;15328;50.860;10.562;2023-02-28T01:10:37;97565.13;;;-0.06;63.42
28000;BME280;15328;50.860;10.562;2023-02-28T01:15:41;97565.13;;;-0.06;63.24
28000;BME280;15328;50.860;10.562;2023-02-28T01:20:43;97564.31;;;-0.06;62.90
28000;BME280;15328;50.860;10.562;2023-02-28T01:25:44;97565.63;;;-0.12;63.25
28000;BME280;15328;50.860;10.562;2023-02-28T01:30:48;97568.00;;;-0.09;63.08
28000;BME280;15328;50.860;10.562;2023-02-28T01:35:49;97556.00;;;-0.11;62.90
28000;BME280;15328;50.860;10.562;2023-02-28T01:40:50;97551.34;;;-0.08;63.12
28000;BME280;15328;50.860;10.562;2023-02-28T01:45:52;97557.66;;;-0.10;63.27
28000;BME280;15328;50.860;10.562;2023-02-28T01:50:53;97552.81;;;-0.15;63.61
28000;BME280;15328;50.860;10.562;2023-02-28T01:55:55;97548.41;;;-0.14;63.62
28000;BME280;15328;50.860;10.562;2023-02-28T02:00:56;97539.72;;;-0.15;62.68
28000;BME280;15328;50.860;10.562;2023-02-28T02:05:57;97544.97;;;-0.15;62.98
28000;BME280;15328;50.860;10.562;2023-02-28T02:11:01;97546.75;;;-0.15;63.42
28000;BME280;15328;50.860;10.562;2023-02-28T02:16:51;97543.81;;;-0.22;62.87
28000;BME280;15328;50.860;10.562;2023-02-28T02:43:40;97527.16;;;-0.21;63.24
28000;BME280;15328;50.860;10.562;2023-02-28T02:48:43;97523.59;;;-0.20;62.78
28000;BME280;15328;50.860;10.562;2023-02-28T02:54:05;97529.78;;;-0.21;63.48
28000;BME280;15328;50.860;10.562;2023-02-28T02:59:11;97531.75;;;-0.13;63.65
28000;BME280;15328;50.860;10.562;2023-02-28T03:04:16;97532.72;;;-0.14;63.85
28000;BME280;15328;50.860;10.562;2023-02-28T03:09:19;97534.13;;;-0.10;63.33
28000;BME280;15328;50.860;10.562;2023-02-28T03:14:28;97529.78;;;-0.21;63.05
28000;BME280;15328;50.860;10.562;2023-02-28T03:19:40;97534.53;;;-0.26;62.91
28000;BME280;15328;50.860;10.562;2023-02-28T03:25:05;97527.28;;;-0.34;63.13
28000;BME280;15328;50.860;10.562;2023-02-28T03:35:48;97528.09;;;-0.54;63.24
28000;BME280;15328;50.860;10.562;2023-02-28T03:41:00;97525.81;;;-0.58;62.66
28000;BME280;15328;50.860;10.562;2023-02-28T03:46:06;97533.06;;;-0.62;63.22
28000;BME280;15328;50.860;10.562;2023-02-28T03:51:10;97532.03;;;-0.71;63.45
28000;BME280;15328;50.860;10.562;2023-02-28T03:56:22;97523.94;;;-0.68;62.94
28000;BME280;15328;50.860;10.562;2023-02-28T04:01:30;97526.34;;;-0.76;63.84
28000;BME280;15328;50.860;10.562;2023-02-28T04:06:34;97525.38;;;-0.75;63.04
28000;BME280;15328;50.860;10.562;2023-02-28T04:11:42;97539.53;;;-0.77;63.19
28000;BME280;15328;50.860;10.562;2023-02-28T04:16:44;97533.59;;;-0.79;64.15
28000;BME280;15328;50.860;10.562;2023-02-28T04:21:47;97529.91;;;-0.77;63.16
28000;BME280;15328;50.860;10.562;2023-02-28T04:26:50;97531.56;;;-0.76;64.01
28000;BME280;15328;50.860;10.562;2023-02-28T04:31:52;97534.19;;;-0.76;63.46
28000;BME280;15328;50.860;10.562;2023-02-28T04:36:58;97528.94;;;-0.76;62.74
28000;BME280;15328;50.860;10.562;2023-02-28T04:42:00;97539.03;;;-0.71;62.65
28000;BME280;15328;50.860;10.562;2023-02-28T04:47:00;97535.34;;;-0.69;63.48
28000;BME280;15328;50.860;10.562;2023-02-28T04:52:00;97541.53;;;-0.70;62.28
28000;BME280;15328;50.860;10.562;2023-02-28T04:57:01;97538.78;;;-0.68;62.73
28000;BME280;15328;50.860;10.562;2023-02-28T05:02:03;97536.06;;;-0.67;62.84
28000;BME280;15328;50.860;10.562;2023-02-28T05:07:06;97543.78;;;-0.65;63.05
28000;BME280;15328;50.860;10.562;2023-02-28T05:12:08;97545.06;;;-0.59;62.14
28000;BME280;15328;50.860;10.562;2023-02-28T05:17:09;97546.25;;;-0.64;62.02
28000;BME280;15328;50.860;10.562;2023-02-28T05:22:14;97550.53;;;-0.63;62.68
28000;BME280;15328;50.860;10.562;2023-02-28T05:27:16;97553.16;;;-0.63;62.03
28000;BME280;15328;50.860;10.562;2023-02-28T05:32:17;97552.19;;;-0.62;62.58
28000;BME280;15328;50.860;10.562;2023-02-28T05:37:17;97563.47;;;-0.61;62.07
28000;BME280;15328;50.860;10.562;2023-02-28T05:42:17;97570.84;;;-0.55;61.80
28000;BME280;15328;50.860;10.562;2023-02-28T05:47:18;97572.63;;;-0.55;62.40
28000;BME280;15328;50.860;10.562;2023-02-28T05:52:18;97568.34;;;-0.56;61.83
28000;BME280;15328;50.860;10.562;2023-02-28T05:57:18;97571.09;;;-0.47;61.49
28000;BME280;15328;50.860;10.562;2023-02-28T06:02:19;97568.13;;;-0.53;62.53
28000;BME280;15328;50.860;10.562;2023-02-28T06:07:19;97567.63;;;-0.47;62.06
28000;BME280;15328;50.860;10.562;2023-02-28T06:12:20;97575.22;;;-0.55;61.47
28000;BME280;15328;50.860;10.562;2023-02-28T06:17:20;97566.47;;;-0.54;62.21
28000;BME280;15328;50.860;10.562;2023-02-28T06:22:20;97577.00;;;-0.56;62.09
28000;BME280;15328;50.860;10.562;2023-02-28T06:27:21;97578.81;;;-0.56;62.28
28000;BME280;15328;50.860;10.562;2023-02-28T06:32:22;97581.66;;;-0.59;61.72
28000;BME280;15328;50.860;10.562;2023-02-28T06:37:22;97583.69;;;-0.63;61.38
28000;BME280;15328;50.860;10.562;2023-02-28T06:42:26;97594.97;;;-0.63;61.70
28000;BME280;15328;50.860;10.562;2023-02-28T06:47:30;97601.84;;;-0.62;62.31
28000;BME280;15328;50.860;10.562;2023-02-28T06:52:31;97614.09;;;-0.62;61.08
28000;BME280;15328;50.860;10.562;2023-02-28T06:57:32;97611.47;;;-0.62;61.36
28000;BME280;15328;50.860;10.562;2023-02-28T07:02:35;97621.38;;;-0.54;61.79
28000;BME280;15328;50.860;10.562;2023-02-28T07:07:36;97622.19;;;-0.54;60.82
28000;BME280;15328;50.860;10.562;2023-02-28T07:12:38;97623.94;;;-0.43;61.19
28000;BME280;15328;50.860;10.562;2023-02-28T07:17:39;97627.16;;;-0.40;61.00
28000;BME280;15328;50.860;10.562;2023-02-28T07:22:39;97620.47;;;-0.33;60.13
28000;BME280;15328;50.860;10.562;2023-02-28T07:27:39;97626.53;;;-0.32;60.55
28000;BME280;15328;50.860;10.562;2023-02-28T07:32:40;97628.69;;;-0.26;60.26
28000;BME280;15328;50.860;10.562;2023-02-28T07:37:41;97630.41;;;-0.04;59.90
28000;BME280;15328;50.860;10.562;2023-02-28T07:42:42;97626.25;;;-0.07;59.44
28000;BME280;15328;50.860;10.562;2023-02-28T07:47:42;97622.19;;;0.12;59.30
28000;BME280;15328;50.860;10.562;2023-02-28T07:52:43;97627.47;;;0.21;59.44
28000;BME280;15328;50.860;10.562;2023-02-28T07:57:43;97628.31;;;0.22;58.85
28000;BME280;15328;50.860;10.562;2023-02-28T08:02:43;97632.34;;;0.26;58.64
28000;BME280;15328;50.860;10.562;2023-02-28T08:07:44;97641.91;;;0.48;58.45
28000;BME280;15328;50.860;10.562;2023-02-28T08:12:44;97637.94;;;0.53;57.37
28000;BME280;15328;50.860;10.562;2023-02-28T08:17:45;97630.56;;;0.58;57.89
28000;BME280;15328;50.860;10.562;2023-02-28T08:22:45;97636.25;;;0.64;57.99
28000;BME280;15328;50.860;10.562;2023-02-28T08:27:45;97634.59;;;0.83;56.38
28000;BME280;15328;50.860;10.562;2023-02-28T08:32:46;97636.81;;;0.88;56.76
28000;BME280;15328;50.860;10.562;2023-02-28T08:37:49;97624.91;;;1.05;55.95
28000;BME280;15328;50.860;10.562;2023-02-28T08:42:50;97638.25;;;1.22;54.47
28000;BME280;15328;50.860;10.562;2023-02-28T08:47:50;97642.84;;;1.30;53.19
28000;BME280;15328;50.860;10.562;2023-02-28T08:52:52;97638.09;;;1.45;53.49
28000;BME280;15328;50.860;10.562;2023-02-28T08:57:52;97637.63;;;1.70;52.43
28000;BME280;15328;50.860;10.562;2023-02-28T09:02:53;97645.69;;;1.88;52.11
28000;BME280;15328;50.860;10.562;2023-02-28T09:07:54;97648.44;;;1.86;50.57
28000;BME280;15328;50.860;10.562;2023-02-28T09:12:55;97647.03;;;1.73;49.83
28000;BME280;15328;50.860;10.562;2023-02-28T09:17:55;97630.94;;;1.57;49.99
28000;BME280;15328;50.860;10.562;2023-02-28T09:22:55;97632.34;;;1.61;49.59
28000;BME280;15328;50.860;10.562;2023-02-28T09:27:55;97635.97;;;1.69;50.39
28000;BME280;15328;50.860;10.562;2023-02-28T09:32:56;97635.41;;;1.66;49.32
28000;BME280;15328;50.860;10.562;2023-02-28T09:37:56;97635.59;;;1.83;50.39
28000;BME280;15328;50.860;10.562;2023-02-28T09:42:59;97635.25;;;2.46;49.39
28000;BME280;15328;50.860;10.562;2023-02-28T09:48:03;97656.84;;;2.69;46.73
28000;BME280;15328;50.860;10.562;2023-02-28T09:53:21;97641.88;;;2.98;44.67
28000;BME280;15328;50.860;10.562;2023-02-28T09:58:31;97650.84;;;2.96;44.08
28000;BME280;15328;50.860;10.562;2023-02-28T10:03:43;97653.03;;;3.94;43.22
28000;BME280;15328;50.860;10.562;2023-02-28T10:08:57;97649.13;;;3.98;40.61
28000;BME280;15328;50.860;10.562;2023-02-28T10:14:32;97646.78;;;3.67;40.11
28000;BME280;15328;50.860;10.562;2023-02-28T10:24:51;97660.72;;;4.50;38.95
28000;BME280;15328;50.860;10.562;2023-02-28T10:29:54;97654.47;;;4.51;37.53
28000;BME280;15328;50.860;10.562;2023-02-28T10:35:17;97649.09;;;4.96;38.18
28000;BME280;15328;50.860;10.562;2023-02-28T10:45:18;97642.34;;;6.14;36.72
28000;BME280;15328;50.860;10.562;2023-02-28T10:55:38;97634.50;;;7.03;35.33
28000;BME280;15328;50.860;10.562;2023-02-28T11:00:39;97638.94;;;7.35;36.00
28000;BME280;15328;50.860;10.562;2023-02-28T11:05:41;97638.78;;;7.45;34.53
28000;BME280;15328;50.860;10.562;2023-02-28T11:10:57;97644.09;;;7.29;34.57
28000;BME280;15328;50.860;10.562;2023-02-28T11:16:00;97634.84;;;7.17;33.89
28000;BME280;15328;50.860;10.562;2023-02-28T11:21:02;97638.97;;;7.27;34.15
28000;BME280;15328;50.860;10.562;2023-02-28T11:26:04;97636.81;;;7.06;34.03
28000;BME280;15328;50.860;10.562;2023-02-28T11:31:15;97631.06;;;6.87;33.90
28000;BME280;15328;50.860;10.562;2023-02-28T11:47:43;97617.78;;;7.27;33.52
28000;BME280;15328;50.860;10.562;2023-02-28T11:52:51;97609.53;;;7.22;33.67
28000;BME280;15328;50.860;10.562;2023-02-28T12:03:27;97616.66;;;6.97;34.04
28000;BME280;15328;50.860;10.562;2023-02-28T12:14:15;97614.38;;;6.86;34.42
28000;BME280;15328;50.860;10.562;2023-02-28T12:35:13;97592.28;;;7.42;33.89
28000;BME280;15328;50.860;10.562;2023-02-28T12:40:18;97580.94;;;7.65;32.74
28000;BME280;15328;50.860;10.562;2023-02-28T12:45:23;97574.69;;;7.97;33.21
28000;BME280;15328;50.860;10.562;2023-02-28T12:50:24;97592.50;;;8.42;32.52
28000;BME280;15328;50.860;10.562;2023-02-28T12:56:20;97586.84;;;8.68;31.60
28000;BME280;15328;50.860;10.562;2023-02-28T13:06:52;97581.34;;;8.70;30.61
28000;BME280;15328;50.860;10.562;2023-02-28T13:11:58;97571.72;;;8.54;31.54
28000;BME280;15328;50.860;10.562;2023-02-28T13:27:53;97574.81;;;8.03;32.19
28000;BME280;15328;50.860;10.562;2023-02-28T13:33:24;97563.94;;;7.90;31.88
28000;BME280;15328;50.860;10.562;2023-02-28T13:38:34;97570.88;;;7.91;31.84
28000;BME280;15328;50.860;10.562;2023-02-28T13:44:00;97568.50;;;7.73;32.69
28000;BME280;15328;50.860;10.562;2023-02-28T14:04:48;97562.75;;;7.06;34.58
28000;BME280;15328;50.860;10.562;2023-02-28T14:09:58;97557.31;;;7.55;33.41
28000;BME280;15328;50.860;10.562;2023-02-28T14:14:59;97551.91;;;7.80;31.26
28000;BME280;15328;50.860;10.562;2023-02-28T14:20:00;97550.66;;;7.98;32.20
28000;BME280;15328;50.860;10.562;2023-02-28T14:25:22;97546.72;;;7.94;31.79
28000;BME280;15328;50.860;10.562;2023-02-28T14:41:36;97537.41;;;7.12;32.89
28000;BME280;15328;50.860;10.562;2023-02-28T14:46:40;97530.88;;;6.75;33.52
28000;BME280;15328;50.860;10.562;2023-02-28T14:51:41;97532.88;;;6.33;35.07
28000;BME280;15328;50.860;10.562;2023-02-28T14:56:43;97538.66;;;6.12;35.68
28000;BME280;15328;50.860;10.562;2023-02-28T15:01:43;97539.00;;;5.75;36.18
28000;BME280;15328;50.860;10.562;2023-02-28T15:06:44;97538.38;;;5.39;36.71
28000;BME280;15328;50.860;10.562;2023-02-28T15:11:49;97537.75;;;5.11;37.49
28000;BME280;15328;50.860;10.562;2023-02-28T15:16:57;97539.53;;;4.76;37.88
28000;BME280;15328;50.860;10.562;2023-02-28T15:22:05;97530.50;;;4.61;38.45
28000;BME280;15328;50.860;10.562;2023-02-28T15:27:13;97540.81;;;4.28;38.88
28000;BME280;15328;50.860;10.562;2023-02-28T15:32:29;97536.28;;;4.21;39.68
28000;BME280;15328;50.860;10.562;2023-02-28T15:42:33;97539.53;;;3.97;40.25
28000;BME280;15328;50.860;10.562;2023-02-28T15:47:36;97534.50;;;3.86;40.18
28000;BME280;15328;50.860;10.562;2023-02-28T15:57:38;97536.56;;;3.37;41.37
28000;BME280;15328;50.860;10.562;2023-02-28T16:02:40;97533.56;;;3.32;42.16
28000;BME280;15328;50.860;10.562;2023-02-28T16:07:42;97550.47;;;3.29;42.40
28000;BME280;15328;50.860;10.562;2023-02-28T16:12:43;97539.66;;;3.23;42.10
28000;BME280;15328;50.860;10.562;2023-02-28T16:17:44;97545.41;;;3.08;42.88
28000;BME280;15328;50.860;10.562;2023-02-28T16:22:45;97552.78;;;2.95;42.77
28000;BME280;15328;50.860;10.562;2023-02-28T16:27:48;97554.72;;;2.93;43.19
28000;BME280;15328;50.860;10.562;2023-02-28T16:32:50;97553.25;;;2.81;44.32
28000;BME280;15328;50.860;10.562;2023-02-28T16:37:51;97570.25;;;2.67;44.81
28000;BME280;15328;50.860;10.562;2023-02-28T16:42:57;97581.59;;;2.68;44.07
28000;BME280;15328;50.860;10.562;2023-02-28T16:47:58;97569.75;;;2.54;45.48
28000;BME280;15328;50.860;10.562;2023-02-28T16:52:59;97582.59;;;2.57;44.76
28000;BME280;15328;50.860;10.562;2023-02-28T16:58:01;97578.06;;;2.50;45.61
28000;BME280;15328;50.860;10.562;2023-02-28T17:03:01;97595.03;;;2.36;45.56
28000;BME280;15328;50.860;10.562;2023-02-28T17:08:02;97590.06;;;2.23;46.42
28000;BME280;15328;50.860;10.562;2023-02-28T17:13:03;97593.91;;;2.09;47.09
28000;BME280;15328;50.860;10.562;2023-02-28T17:18:04;97592.41;;;2.16;46.72
28000;BME280;15328;50.860;10.562;2023-02-28T17:23:04;97601.09;;;1.98;47.62
28000;BME280;15328;50.860;10.562;2023-02-28T17:28:05;97599.28;;;1.89;47.26
28000;BME280;15328;50.860;10.562;2023-02-28T17:33:05;97597.75;;;1.76;48.22
28000;BME280;15328;50.860;10.562;2023-02-28T17:38:14;97604.63;;;1.68;47.42
28000;BME280;15328;50.860;10.562;2023-02-28T17:43:15;97614.38;;;1.56;47.78
28000;BME280;15328;50.860;10.562;2023-02-28T17:48:16;97620.03;;;1.51;48.84
28000;BME280;15328;50.860;10.562;2023-02-28T17:53:17;97620.16;;;1.50;48.85
28000;BME280;15328;50.860;10.562;2023-02-28T17:58:17;97626.22;;;1.41;48.87
28000;BME280;15328;50.860;10.562;2023-02-28T18:03:18;97619.91;;;1.53;48.82
28000;BME280;15328;50.860;10.562;2023-02-28T18:08:19;97632.03;;;1.44;48.65
28000;BME280;15328;50.860;10.562;2023-02-28T18:13:20;97621.22;;;1.38;49.24
28000;BME280;15328;50.860;10.562;2023-02-28T18:18:20;97619.25;;;1.30;48.82
28000;BME280;15328;50.860;10.562;2023-02-28T18:23:20;97617.31;;;1.32;48.37
28000;BME280;15328;50.860;10.562;2023-02-28T18:28:21;97619.22;;;1.20;49.83
28000;BME280;15328;50.860;10.562;2023-02-28T18:33:21;97617.63;;;1.08;49.96
28000;BME280;15328;50.860;10.562;2023-02-28T18:38:22;97611.38;;;1.00;49.82
28000;BME280;15328;50.860;10.562;2023-02-28T18:43:22;97617.97;;;0.94;50.19
28000;BME280;15328;50.860;10.562;2023-02-28T18:48:23;97615.75;;;0.89;50.18
28000;BME280;15328;50.860;10.562;2023-02-28T18:53:23;97609.47;;;0.81;51.21
28000;BME280;15328;50.860;10.562;2023-02-28T18:58:24;97609.72;;;0.78;51.22
28000;BME280;15328;50.860;10.562;2023-02-28T19:03:24;97604.81;;;0.64;51.23
28000;BME280;15328;50.860;10.562;2023-02-28T19:08:26;97602.00;;;0.55;51.74
28000;BME280;15328;50.860;10.562;2023-02-28T19:13:26;97594.25;;;0.54;52.37
28000;BME280;15328;50.860;10.562;2023-02-28T19:18:26;97581.53;;;0.49;51.83
28000;BME280;15328;50.860;10.562;2023-02-28T19:23:29;97591.19;;;0.49;52.06
28000;BME280;15328;50.860;10.562;2023-02-28T19:28:30;97595.47;;;0.50;52.22
28000;BME280;15328;50.860;10.562;2023-02-28T19:33:31;97614.06;;;0.47;51.98
28000;BME280;15328;50.860;10.562;2023-02-28T19:38:31;97608.25;;;0.43;52.07
28000;BME280;15328;50.860;10.562;2023-02-28T19:43:35;97604.78;;;0.43;51.89
28000;BME280;15328;50.860;10.562;2023-02-28T19:48:36;97609.34;;;0.41;53.04
28000;BME280;15328;50.860;10.562;2023-02-28T19:53:38;97600.78;;;0.39;52.21
28000;BME280;15328;50.860;10.562;2023-02-28T19:58:38;97596.88;;;0.33;52.19
28000;BME280;15328;50.860;10.562;2023-02-28T20:03:40;97599.63;;;0.32;52.62
28000;BME280;15328;50.860;10.562;2023-02-28T20:08:40;97606.38;;;0.34;52.05
28000;BME280;15328;50.860;10.562;2023-02-28T20:13:42;97611.06;;;0.30;52.42
28000;BME280;15328;50.860;10.562;2023-02-28T20:18:43;97615.94;;;0.24;52.05
28000;BME280;15328;50.860;10.562;2023-02-28T20:23:45;97605.59;;;0.22;52.68
28000;BME280;15328;50.860;10.562;2023-02-28T20:28:47;97616.44;;;0.18;52.75
28000;BME280;15328;50.860;10.562;2023-02-28T20:33:49;97617.53;;;0.15;52.46
28000;BME280;15328;50.860;10.562;2023-02-28T20:38:50;97610.03;;;0.11;52.46
28000;BME280;15328;50.860;10.562;2023-02-28T20:43:55;97614.94;;;0.04;53.12
28000;BME280;15328;50.860;10.562;2023-02-28T20:49:01;97610.06;;;-0.01;53.50
28000;BME280;15328;50.860;10.562;2023-02-28T20:54:01;97611.97;;;-0.03;53.37
28000;BME280;15328;50.860;10.562;2023-02-28T20:59:02;97614.13;;;-0.08;53.52
28000;BME280;15328;50.860;10.562;2023-02-28T21:04:04;97610.47;;;-0.16;53.48
28000;BME280;15328;50.860;10.562;2023-02-28T21:09:09;97616.91;;;-0.20;53.41
28000;BME280;15328;50.860;10.562;2023-02-28T21:14:14;97618.00;;;-0.23;53.71
28000;BME280;15328;50.860;10.562;2023-02-28T21:19:15;97615.38;;;-0.23;53.83
28000;BME280;15328;50.860;10.562;2023-02-28T21:24:17;97614.19;;;-0.30;53.96
28000;BME280;15328;50.860;10.562;2023-02-28T21:29:18;97613.84;;;-0.37;54.71
28000;BME280;15328;50.860;10.562;2023-02-28T21:34:19;97608.84;;;-0.40;54.92
28000;BME280;15328;50.860;10.562;2023-02-28T21:39:22;97608.25;;;-0.43;54.03
28000;BME280;15328;50.860;10.562;2023-02-28T21:44:24;97612.06;;;-0.47;54.00
28000;BME280;15328;50.860;10.562;2023-02-28T21:49:27;97620.41;;;-0.53;54.08
28000;BME280;15328;50.860;10.562;2023-02-28T21:54:27;97619.91;;;-0.58;54.46
28000;BME280;15328;50.860;10.562;2023-02-28T21:59:28;97608.75;;;-0.60;54.98
28000;BME280;15328;50.860;10.562;2023-02-28T22:04:28;97615.28;;;-0.66;55.01
28000;BME280;15328;50.860;10.562;2023-02-28T22:09:29;97617.56;;;-0.73;55.23
28000;BME280;15328;50.860;10.562;2023-02-28T22:14:30;97613.66;;;-0.78;55.20
28000;BME280;15328;50.860;10.562;2023-02-28T22:19:30;97617.41;;;-0.82;55.36
28000;BME280;15328;50.860;10.562;2023-02-28T22:24:30;97620.63;;;-0.90;55.58
28000;BME280;15328;50.860;10.562;2023-02-28T22:29:31;97613.97;;;-0.94;55.70
28000;BME280;15328;50.860;10.562;2023-02-28T22:34:31;97623.00;;;-0.98;55.69
28000;BME280;15328;50.860;10.562;2023-02-28T22:39:31;97611.38;;;-1.05;55.85
28000;BME280;15328;50.860;10.562;2023-02-28T22:44:32;97602.09;;;-1.09;56.52
28000;BME280;15328;50.860;10.562;2023-02-28T22:49:32;97611.69;;;-1.10;56.62
28000;BME280;15328;50.860;10.562;2023-02-28T22:54:32;97612.75;;;-1.23;55.93
28000;BME280;15328;50.860;10.562;2023-02-28T22:59:33;97629.25;;;-1.23;57.55
28000;BME280;15328;50.860;10.562;2023-02-28T23:04:33;97623.66;;;-1.30;56.55
28000;BME280;15328;50.860;10.562;2023-02-28T23:09:33;97625.56;;;-1.32;56.78
28000;BME280;15328;50.860;10.562;2023-02-28T23:14:34;97622.94;;;-1.32;56.62
28000;BME280;15328;50.860;10.562;2023-02-28T23:19:35;97641.47;;;-1.35;57.47
28000;BME280;15328;50.860;10.562;2023-02-28T23:24:36;97624.72;;;-1.32;56.87
28000;BME280;15328;50.860;10.562;2023-02-28T23:29:36;97627.69;;;-1.37;56.95
28000;BME280;15328;50.860;10.562;2023-02-28T23:34:36;97617.84;;;-1.33;57.46
28000;BME280;15328;50.860;10.562;2023-02-28T23:39:37;97624.03;;;-1.34;57.35
28000;BME280;15328;50.860;10.562;2023-02-28T23:44:37;97608.13;;;-1.31;56.66
28000;BME280;15328;50.860;10.562;2023-02-28T23:49:38;97609.63;;;-1.40;57.13
28000;BME280;15328;50.860;10.562;2023-02-28T23:54:39;97611.16;;;-1.37;56.41
28000;BME280;15328;50.860;10.562;2023-02-28T23:59:39;97602.13;;;-1.44;56.88
